createdAt,value
2023-09-14T00:01:51.355Z,102218.88
2023-09-14T00:04:25.019Z,102221.66
2023-09-14T00:06:57.665Z,102218.06
2023-09-14T00:09:30.671Z,102217.69
2023-09-14T00:12:05.097Z,102215.69
2023-09-14T00:14:37.896Z,102224.44
2023-09-14T00:17:11.297Z,102221.25
2023-09-14T00:19:44.072Z,102218.06
2023-09-14T00:22:16.890Z,102226.03
2023-09-14T00:24:49.688Z,102224.84
2023-09-14T00:27:24.112Z,102217.69
2023-09-14T00:29:56.855Z,102218.09
2023-09-14T00:32:29.930Z,102222.47
2023-09-14T00:35:03.129Z,102226.03
2023-09-14T00:37:37.396Z,102215.31
2023-09-14T00:40:11.985Z,102218.06
2023-09-14T00:42:47.669Z,102215.31
2023-09-14T00:45:22.051Z,102215.69
2023-09-14T00:47:59.233Z,102214.50
2023-09-14T00:50:32.923Z,102211.72
2023-09-14T00:53:09.655Z,102216.88
2023-09-14T00:55:43.828Z,102214.91
2023-09-14T00:58:18.120Z,102212.09
2023-09-14T01:00:51.637Z,102215.69
2023-09-14T01:03:25.787Z,102211.72
2023-09-14T01:05:59.262Z,102211.72
2023-09-14T01:08:32.066Z,102216.50
2023-09-14T01:11:06.989Z,102214.50
2023-09-14T01:13:49.390Z,102215.66
2023-09-14T01:16:28.483Z,102213.66
2023-09-14T01:19:12.277Z,102210.88
2023-09-14T01:21:58.549Z,102207.72
2023-09-14T01:24:47.861Z,102217.66
2023-09-14T01:27:25.427Z,102210.88
2023-09-14T01:29:59.987Z,102208.91
2023-09-14T01:32:34.567Z,102206.13
2023-09-14T01:35:07.904Z,102209.28
2023-09-14T01:37:41.193Z,102200.94
2023-09-14T01:40:15.059Z,102204.13
2023-09-14T01:42:50.884Z,102209.28
2023-09-14T01:45:24.270Z,102205.69
2023-09-14T01:47:58.283Z,102201.31
2023-09-14T01:50:31.284Z,102203.72
2023-09-14T01:53:04.085Z,102200.53
2023-09-14T01:55:36.845Z,102204.13
2023-09-14T01:58:11.567Z,102196.56
2023-09-14T02:00:44.788Z,102200.94
2023-09-14T02:03:17.607Z,102193.78
2023-09-14T02:05:59.205Z,102198.94
2023-09-14T02:08:32.525Z,102195.38
2023-09-14T02:11:05.393Z,102182.66
2023-09-14T02:13:39.485Z,102183.06
2023-09-14T02:16:12.303Z,102187.03
2023-09-14T02:18:46.036Z,102181.06
2023-09-14T02:21:20.140Z,102181.47
2023-09-14T02:23:56.170Z,102178.28
2023-09-14T02:26:28.982Z,102178.66
2023-09-14T02:29:04.218Z,102172.72
2023-09-14T02:31:37.098Z,102175.88
2023-09-14T02:34:09.893Z,102173.13
2023-09-14T02:36:42.870Z,102175.50
2023-09-14T02:39:15.678Z,102176.31
2023-09-14T02:41:49.063Z,102176.69
2023-09-14T02:44:23.661Z,102178.25
2023-09-14T02:46:56.538Z,102171.50
2023-09-14T02:49:29.403Z,102171.88
2023-09-14T02:52:02.281Z,102171.13
2023-09-14T02:54:38.117Z,102171.13
2023-09-14T02:57:11.085Z,102168.72
2023-09-14T02:59:45.145Z,102167.16
2023-09-14T03:02:17.930Z,102172.69
2023-09-14T03:04:50.843Z,102157.59
2023-09-14T03:07:25.279Z,102167.50
2023-09-14T03:10:00.115Z,102154.03
2023-09-14T03:12:33.074Z,102160.78
2023-09-14T03:15:08.795Z,102159.97
2023-09-14T03:17:41.808Z,102160.75
2023-09-14T03:20:14.935Z,102156.00
2023-09-14T03:22:47.948Z,102163.13
2023-09-14T03:25:20.909Z,102159.16
2023-09-14T03:27:53.738Z,102155.94
2023-09-14T03:30:28.278Z,102160.72
2023-09-14T03:33:01.170Z,102159.94
2023-09-14T03:35:33.985Z,102160.72
2023-09-14T03:38:09.193Z,102161.91
2023-09-14T03:40:45.475Z,102158.34
2023-09-14T03:43:18.186Z,102155.56
2023-09-14T03:45:52.856Z,102163.47
2023-09-14T03:48:26.665Z,102165.78
2023-09-14T03:51:01.966Z,102156.66
2023-09-14T03:53:35.027Z,102154.69
2023-09-14T03:56:08.445Z,102155.44
2023-09-14T03:58:43.749Z,102159.03
2023-09-14T04:01:18.350Z,102156.66
2023-09-14T04:03:53.878Z,102153.84
2023-09-14T04:06:28.646Z,102145.53
2023-09-14T04:09:01.245Z,102151.88
2023-09-14T04:11:34.098Z,102143.91
2023-09-14T04:14:06.782Z,102148.69
2023-09-14T04:16:40.900Z,102144.72
2023-09-14T04:19:14.224Z,102146.66
2023-09-14T04:21:47.949Z,102153.41
2023-09-14T04:24:21.049Z,102161.34
2023-09-14T04:26:54.288Z,102153.81
2023-09-14T04:29:27.083Z,102143.91
2023-09-14T04:32:01.304Z,102147.09
2023-09-14T04:34:34.929Z,102158.97
2023-09-14T04:37:07.853Z,102160.16
2023-09-14T04:39:40.541Z,102160.16
2023-09-14T04:42:13.478Z,102154.59
2023-09-14T04:44:51.537Z,102159.75
2023-09-14T04:47:26.415Z,102162.53
2023-09-14T04:50:00.040Z,102162.91
2023-09-14T04:52:32.644Z,102162.91
2023-09-14T04:55:06.261Z,102163.22
2023-09-14T04:57:39.257Z,102157.69
2023-09-14T05:00:14.125Z,102161.25
2023-09-14T05:02:49.358Z,102160.84
2023-09-14T05:05:22.522Z,102164.06
2023-09-14T05:07:55.329Z,102162.03
2023-09-14T05:10:28.315Z,102156.88
2023-09-14T05:13:02.315Z,102156.53
2023-09-14T05:15:37.670Z,102158.03
2023-09-14T05:18:12.029Z,102148.53
2023-09-14T05:20:45.340Z,102146.16
2023-09-14T05:23:18.918Z,102146.16
2023-09-14T05:25:52.178Z,102148.13
2023-09-14T05:28:25.517Z,102158.03
2023-09-14T05:30:58.398Z,102151.31
2023-09-14T05:33:32.641Z,102154.06
2023-09-14T05:36:06.682Z,102160.41
2023-09-14T05:38:39.462Z,102160.41
2023-09-14T05:41:12.309Z,102162.75
2023-09-14T05:43:45.283Z,102163.59
2023-09-14T05:46:18.406Z,102153.28
2023-09-14T05:48:52.830Z,102163.59
2023-09-14T05:51:26.714Z,102165.19
2023-09-14T05:53:59.671Z,102171.06
2023-09-14T05:56:34.717Z,102168.72
2023-09-14T05:59:17.437Z,102169.88
2023-09-14T06:01:59.101Z,102166.31
2023-09-14T06:04:33.504Z,102178.66
2023-09-14T06:07:06.930Z,102176.63
2023-09-14T06:09:39.972Z,102175.88
2023-09-14T06:12:12.828Z,102177.09
2023-09-14T06:14:45.874Z,102174.69
2023-09-14T06:17:18.511Z,102178.28
2023-09-14T06:19:52.763Z,102176.28
2023-09-14T06:22:25.811Z,102186.63
2023-09-14T06:25:00.654Z,102189.00
2023-09-14T06:27:34.424Z,102184.28
2023-09-14T06:30:09.239Z,102186.63
2023-09-14T06:32:42.184Z,102179.50
2023-09-14T06:35:16.275Z,102184.28
2023-09-14T06:37:49.070Z,102183.44
2023-09-14T06:40:21.871Z,102191.38
2023-09-14T06:42:54.943Z,102185.44
2023-09-14T06:45:27.515Z,102189.84
2023-09-14T06:48:00.666Z,102181.09
2023-09-14T06:50:34.852Z,102188.25
2023-09-14T06:53:07.633Z,102189.03
2023-09-14T06:55:43.017Z,102181.16
2023-09-14T06:58:16.764Z,102181.16
2023-09-14T07:00:49.616Z,102184.31
2023-09-14T07:03:24.847Z,102186.75
2023-09-14T07:05:59.761Z,102180.44
2023-09-14T07:08:32.509Z,102179.59
2023-09-14T07:11:05.264Z,102181.16
2023-09-14T07:13:38.410Z,102182.00
2023-09-14T07:16:12.235Z,102183.97
2023-09-14T07:18:45.243Z,102184.34
2023-09-14T07:21:19.390Z,102182.03
2023-09-14T07:23:53.482Z,102185.22
2023-09-14T07:26:26.261Z,102195.22
2023-09-14T07:28:59.706Z,102197.97
2023-09-14T07:31:32.554Z,102195.66
2023-09-14T07:34:05.536Z,102193.66
2023-09-14T07:36:39.689Z,102196.47
2023-09-14T07:39:12.421Z,102192.13
2023-09-14T07:41:45.428Z,102202.84
2023-09-14T07:44:18.262Z,102206.84
2023-09-14T07:46:51.272Z,102204.47
2023-09-14T07:49:25.295Z,102207.28
2023-09-14T07:51:59.550Z,102210.47
2023-09-14T07:54:35.670Z,102210.06
2023-09-14T07:57:08.722Z,102206.91
2023-09-14T07:59:43.092Z,102207.34
2023-09-14T08:02:15.963Z,102215.72
2023-09-14T08:04:49.363Z,102214.50
2023-09-14T08:07:23.967Z,102213.28
2023-09-14T08:09:57.054Z,102211.31
2023-09-14T08:12:30.042Z,102207.31
2023-09-14T08:15:05.033Z,102215.63
2023-09-14T08:17:38.345Z,102208.47
2023-09-14T08:20:11.558Z,102202.91
2023-09-14T08:22:46.163Z,102215.56
2023-09-14T08:25:20.761Z,102206.00
2023-09-14T08:27:55.750Z,102204.31
2023-09-14T08:30:28.687Z,102204.16
2023-09-14T08:33:01.568Z,102206.44
2023-09-14T08:35:35.384Z,102205.47
2023-09-14T08:38:09.902Z,102206.13
2023-09-14T08:40:43.692Z,102212.38
2023-09-14T08:43:16.587Z,102214.63
2023-09-14T08:45:51.859Z,102211.31
2023-09-14T08:48:28.317Z,102211.97
2023-09-14T08:51:03.459Z,102211.03
2023-09-14T08:53:38.671Z,102214.94
2023-09-14T08:56:14.170Z,102213.53
2023-09-14T08:58:47.749Z,102216.19
2023-09-14T09:01:20.611Z,102209.53
2023-09-14T09:03:54.530Z,102207.59
2023-09-14T09:06:27.458Z,102211.41
2023-09-14T09:09:03.278Z,102209.75
2023-09-14T09:11:36.801Z,102205.47
2023-09-14T09:14:09.752Z,102198.22
2023-09-14T09:16:42.507Z,102205.81
2023-09-14T09:19:17.019Z,102212.81
2023-09-14T09:21:49.947Z,102214.94
2023-09-14T09:24:29.598Z,102216.41
2023-09-14T09:27:02.905Z,102211.75
2023-09-14T09:29:35.793Z,102213.22
2023-09-14T09:32:10.559Z,102209.00
2023-09-14T09:34:43.299Z,102211.06
2023-09-14T09:37:15.293Z,102214.16
2023-09-14T09:39:51.280Z,102211.78
2023-09-14T09:42:24.059Z,102213.03
2023-09-14T09:44:59.629Z,102213.75
2023-09-14T09:47:34.517Z,102215.72
2023-09-14T09:50:09.320Z,102216.59
2023-09-14T09:52:44.400Z,102213.63
2023-09-14T09:55:25.077Z,102205.41
2023-09-14T09:57:59.600Z,102199.25
2023-09-14T10:00:38.111Z,102206.25
2023-09-14T10:03:11.808Z,102196.63
2023-09-14T10:05:45.105Z,102193.75
2023-09-14T10:08:22.799Z,102193.63
2023-09-14T10:10:57.580Z,102193.38
2023-09-14T10:13:30.789Z,102200.44
2023-09-14T10:16:05.341Z,102198.00
2023-09-14T10:18:38.965Z,102193.41
2023-09-14T10:21:12.454Z,102196.16
2023-09-14T10:23:46.805Z,102193.13
2023-09-14T10:26:21.220Z,102190.66
2023-09-14T10:28:55.675Z,102187.03
2023-09-14T10:31:31.600Z,102186.69
2023-09-14T10:34:05.359Z,102191.09
2023-09-14T10:36:42.624Z,102188.59
2023-09-14T10:39:18.594Z,102196.81
2023-09-14T10:41:53.275Z,102187.63
2023-09-14T10:44:26.482Z,102188.03
2023-09-14T10:47:03.977Z,102181.28
2023-09-14T10:49:40.047Z,102191.31
2023-09-14T10:52:13.251Z,102182.31
2023-09-14T10:54:46.837Z,102181.53
2023-09-14T10:57:25.968Z,102181.44
2023-09-14T11:00:00.299Z,102186.09
2023-09-14T11:03:14.341Z,102171.78
2023-09-14T11:05:52.603Z,102185.28
2023-09-14T11:08:30.423Z,102172.78
2023-09-14T11:11:08.198Z,102167.13
2023-09-14T11:13:42.627Z,102172.25
2023-09-14T11:16:19.583Z,102164.44
2023-09-14T11:18:55.291Z,102166.63
2023-09-14T11:21:44.629Z,102162.72
2023-09-14T11:24:37.146Z,102163.50
2023-09-14T11:27:22.078Z,102169.69
2023-09-14T11:29:59.870Z,102160.13
2023-09-14T11:32:35.778Z,102165.63
2023-09-14T11:35:13.869Z,102168.91
2023-09-14T11:37:50.044Z,102156.97
2023-09-14T11:40:35.473Z,102159.00
2023-09-14T11:43:34.867Z,102150.19
2023-09-14T11:46:18.773Z,102160.03
2023-09-14T11:51:31.909Z,102168.31
2023-09-14T11:54:09.841Z,102163.38
2023-09-14T11:56:42.900Z,102165.28
2023-09-14T11:59:30.373Z,102165.22
2023-09-14T12:02:06.100Z,102161.38
2023-09-14T12:04:38.932Z,102161.25
2023-09-14T12:07:12.480Z,102156.38
2023-09-14T12:09:45.534Z,102160.56
2023-09-14T12:12:27.457Z,102156.78
2023-09-14T12:15:02.380Z,102153.97
2023-09-14T12:17:36.670Z,102154.41
2023-09-14T12:20:13.639Z,102151.25
2023-09-14T12:22:47.877Z,102150.75
2023-09-14T12:25:21.650Z,102147.25
2023-09-14T12:27:55.200Z,102142.75
2023-09-14T12:30:29.098Z,102147.53
2023-09-14T12:33:04.924Z,102148.03
2023-09-14T12:35:38.100Z,102153.31
2023-09-14T12:38:11.104Z,102147.13
2023-09-14T12:40:43.938Z,102154.25
2023-09-14T12:43:20.260Z,102151.13
2023-09-14T12:45:54.145Z,102144.59
2023-09-14T12:48:29.406Z,102145.13
2023-09-14T12:51:06.571Z,102131.16
2023-09-14T12:53:41.743Z,102132.50
2023-09-14T12:56:15.757Z,102132.34
2023-09-14T12:58:50.075Z,102133.13
2023-09-14T13:01:23.170Z,102131.47
2023-09-14T13:04:00.275Z,102130.53
2023-09-14T13:06:34.490Z,102119.94
2023-09-14T13:09:09.795Z,102128.06
2023-09-14T13:11:42.610Z,102122.78
2023-09-14T13:14:23.606Z,102128.19
2023-09-14T13:16:59.237Z,102109.31
2023-09-14T13:19:33.629Z,102107.66
2023-09-14T13:22:07.447Z,102105.13
2023-09-14T13:24:40.794Z,102102.75
2023-09-14T13:27:13.696Z,102097.28
2023-09-14T13:29:47.429Z,102093.38
2023-09-14T13:32:20.296Z,102096.28
2023-09-14T13:34:54.503Z,102090.25
2023-09-14T13:37:27.386Z,102089.88
2023-09-14T13:40:00.604Z,102091.41
2023-09-14T13:42:33.500Z,102085.25
2023-09-14T13:45:07.941Z,102083.81
2023-09-14T13:47:41.614Z,102081.25
2023-09-14T13:50:16.592Z,102083.06
2023-09-14T13:52:50.191Z,102088.16
2023-09-14T13:55:23.049Z,102070.47
2023-09-14T13:57:56.250Z,102073.69
2023-09-14T14:00:29.086Z,102071.22
2023-09-14T14:03:08.856Z,102067.00
2023-09-14T14:05:43.476Z,102071.28
2023-09-14T14:08:16.433Z,102071.97
2023-09-14T14:10:49.085Z,102074.41
2023-09-14T14:13:22.173Z,102071.00
2023-09-14T14:15:55.637Z,102074.22
2023-09-14T14:18:29.020Z,102065.41
2023-09-14T14:21:04.185Z,102068.09
2023-09-14T14:23:37.042Z,102067.00
2023-09-14T14:26:10.392Z,102063.69
2023-09-14T14:28:43.224Z,102055.97
2023-09-14T14:31:16.119Z,102054.50
2023-09-14T14:33:49.029Z,102050.69
2023-09-14T14:36:25.272Z,102045.50
2023-09-14T14:38:58.289Z,102045.53
2023-09-14T14:44:06.974Z,102049.03
2023-09-14T14:46:39.770Z,102047.06
2023-09-14T14:49:13.857Z,102045.44
2023-09-14T14:51:48.092Z,102034.53
2023-09-14T14:54:20.959Z,102040.81
2023-09-14T14:56:54.174Z,102041.19
2023-09-14T14:59:29.703Z,102041.38
2023-09-14T15:02:02.610Z,102038.09
2023-09-14T15:04:35.813Z,102033.44
2023-09-14T15:07:10.844Z,102033.13
2023-09-14T15:09:43.821Z,102031.56
2023-09-14T15:12:18.138Z,102030.97
2023-09-14T15:14:53.373Z,102030.53
2023-09-14T15:17:27.012Z,102033.22
2023-09-14T15:20:00.535Z,102028.66
2023-09-14T15:22:34.898Z,102026.66
2023-09-14T15:25:08.189Z,102022.72
2023-09-14T15:27:41.847Z,102016.00
2023-09-14T15:30:14.891Z,102024.50
2023-09-14T15:32:48.077Z,102025.75
2023-09-14T15:35:21.165Z,102018.97
2023-09-14T15:37:55.762Z,102018.38
2023-09-14T15:40:29.480Z,102022.59
2023-09-14T15:43:02.406Z,102018.53
2023-09-14T15:45:40.282Z,102016.97
2023-09-14T15:48:15.537Z,102011.31
2023-09-14T15:50:48.393Z,102015.41
2023-09-14T15:53:25.149Z,102007.72
2023-09-14T15:55:58.180Z,102006.13
2023-09-14T15:58:30.916Z,102010.34
2023-09-14T16:01:03.941Z,102006.88
2023-09-14T16:03:37.105Z,102004.03
2023-09-14T16:06:10.728Z,102002.16
2023-09-14T16:08:45.120Z,102010.59
2023-09-14T16:11:20.276Z,101997.72
2023-09-14T16:13:53.203Z,102002.06
2023-09-14T16:16:26.553Z,102003.63
2023-09-14T16:18:59.597Z,102007.03
2023-09-14T16:21:35.465Z,102000.59
2023-09-14T16:24:12.524Z,102001.81
2023-09-14T16:26:45.800Z,101998.75
2023-09-14T16:29:19.956Z,101993.75
2023-09-14T16:31:52.880Z,101997.03
2023-09-14T16:34:26.994Z,101984.78
2023-09-14T16:36:59.757Z,101984.25
2023-09-14T16:39:34.213Z,101991.25
2023-09-14T16:42:07.606Z,101994.81
2023-09-14T16:44:40.536Z,101986.16
2023-09-14T16:47:13.384Z,101989.91
2023-09-14T16:49:46.748Z,101988.63
2023-09-14T16:52:19.558Z,101990.44
2023-09-14T16:54:56.106Z,101989.00
2023-09-14T16:57:28.848Z,101983.09
2023-09-14T17:00:01.721Z,101983.88
2023-09-14T17:02:34.658Z,101985.81
2023-09-14T17:05:08.066Z,101987.19
2023-09-14T17:07:41.331Z,101980.81
2023-09-14T17:10:15.879Z,101976.56
2023-09-14T17:12:53.442Z,101974.78
2023-09-14T17:15:26.939Z,101969.41
2023-09-14T17:18:00.384Z,101973.47
2023-09-14T17:20:33.444Z,101980.13
2023-09-14T17:23:09.946Z,101976.31
2023-09-14T17:25:44.221Z,101978.00
2023-09-14T17:28:17.369Z,101970.88
2023-09-14T17:30:50.919Z,101965.41
2023-09-14T17:33:23.996Z,101959.09
2023-09-14T17:35:56.760Z,101964.28
2023-09-14T17:38:29.896Z,101964.53
2023-09-14T17:41:05.249Z,101960.59
2023-09-14T17:43:38.606Z,101957.69
2023-09-14T17:46:11.577Z,101968.38
2023-09-14T17:48:44.456Z,101959.81
2023-09-14T17:51:17.814Z,101962.28
2023-09-14T17:53:50.685Z,101966.69
2023-09-14T17:56:24.743Z,101970.13
2023-09-14T17:58:58.518Z,101967.75
2023-09-14T18:01:31.869Z,101959.88
2023-09-14T18:04:05.473Z,101967.84
2023-09-14T18:06:39.229Z,101965.59
2023-09-14T18:09:12.401Z,101966.84
2023-09-14T18:11:46.905Z,101969.84
2023-09-14T18:14:23.449Z,101970.41
2023-09-14T18:16:59.465Z,101963.78
2023-09-14T18:19:35.140Z,101966.78
2023-09-14T18:22:09.499Z,101967.09
2023-09-14T18:24:42.849Z,101969.97
2023-09-14T18:27:17.453Z,101967.38
2023-09-14T18:29:50.580Z,101974.22
2023-09-14T18:32:23.688Z,101970.19
2023-09-14T18:35:01.703Z,101972.81
2023-09-14T18:37:38.376Z,101975.28
2023-09-14T18:40:13.799Z,101974.59
2023-09-14T18:42:49.790Z,101982.31
2023-09-14T18:45:22.873Z,101978.84
2023-09-14T18:47:56.838Z,101975.50
2023-09-14T18:50:29.748Z,101979.28
2023-09-14T18:53:02.549Z,101985.00
2023-09-14T18:55:37.185Z,101978.88
2023-09-14T18:58:23.153Z,101985.38
2023-09-14T19:01:04.259Z,101982.91
2023-09-14T19:03:37.362Z,101983.06
2023-09-14T19:06:10.195Z,101979.13
2023-09-14T19:08:42.968Z,101981.72
2023-09-14T19:11:15.554Z,101984.97
2023-09-14T19:13:49.798Z,101989.19
2023-09-14T19:16:24.786Z,101989.28
2023-09-14T19:18:57.589Z,101995.75
2023-09-14T19:21:31.713Z,101993.53
2023-09-14T19:24:06.531Z,101988.09
2023-09-14T19:26:39.656Z,101986.53
2023-09-14T19:29:14.103Z,101981.44
2023-09-14T19:31:49.323Z,101983.63
2023-09-14T19:34:23.334Z,101988.44
2023-09-14T19:36:56.142Z,101986.50
2023-09-14T19:39:28.778Z,101986.19
2023-09-14T19:42:01.679Z,101979.09
2023-09-14T19:44:37.776Z,101979.88
2023-09-14T19:47:10.682Z,101980.03
2023-09-14T19:49:43.249Z,101978.44
2023-09-14T19:52:16.340Z,101976.00
2023-09-14T19:54:57.719Z,101976.97
2023-09-14T19:57:30.521Z,101977.91
2023-09-14T20:00:05.779Z,101975.50
2023-09-14T20:02:41.820Z,101972.91
2023-09-14T20:05:14.456Z,101979.69
2023-09-14T20:07:47.863Z,101970.50
2023-09-14T20:10:23.713Z,101976.63
2023-09-14T20:12:56.965Z,101964.41
2023-09-14T20:15:32.006Z,101971.22
2023-09-14T20:18:05.875Z,101972.16
2023-09-14T20:20:39.282Z,101974.66
2023-09-14T20:23:15.572Z,101966.69
2023-09-14T20:25:52.289Z,101974.06
2023-09-14T20:28:25.504Z,101974.06
2023-09-14T20:30:59.967Z,101977.34
2023-09-14T20:33:32.927Z,101972.50
2023-09-14T20:36:05.774Z,101968.59
2023-09-14T20:38:43.100Z,101967.88
2023-09-14T20:41:17.932Z,101968.00
2023-09-14T20:43:50.776Z,101962.41
2023-09-14T20:46:25.469Z,101961.75
2023-09-14T20:48:59.926Z,101961.41
2023-09-14T20:51:32.742Z,101957.81
2023-09-14T20:54:05.935Z,101955.38
2023-09-14T20:56:40.961Z,101952.72
2023-09-14T20:59:14.727Z,101943.59
2023-09-14T21:01:49.094Z,101949.25
2023-09-14T21:04:24.909Z,101947.75
2023-09-14T21:06:57.861Z,101945.00
2023-09-14T21:09:30.596Z,101943.13
2023-09-14T21:12:03.897Z,101940.75
2023-09-14T21:14:44.784Z,101944.78
2023-09-14T21:17:19.188Z,101948.03
2023-09-14T21:19:56.515Z,101941.72
2023-09-14T21:22:29.360Z,101942.63
2023-09-14T21:25:02.192Z,101938.03
2023-09-14T21:27:35.429Z,101943.94
2023-09-14T21:30:09.729Z,101942.59
2023-09-14T21:32:43.941Z,101938.72
2023-09-14T21:35:16.909Z,101945.38
2023-09-14T21:37:50.492Z,101939.63
2023-09-14T21:40:24.012Z,101945.59
2023-09-14T21:42:56.825Z,101932.84
2023-09-14T21:45:31.906Z,101935.75
2023-09-14T21:48:07.185Z,101939.28
2023-09-14T21:50:42.378Z,101930.56
2023-09-14T21:53:16.125Z,101931.47
2023-09-14T21:55:50.513Z,101939.53
2023-09-14T21:58:25.080Z,101933.88
2023-09-14T22:00:59.189Z,101935.97
2023-09-14T22:03:49.022Z,101931.25
2023-09-14T22:06:25.792Z,101932.06
2023-09-14T22:08:58.915Z,101928.06
2023-09-14T22:11:32.177Z,101935.63
2023-09-14T22:14:06.570Z,101927.25
2023-09-14T22:16:40.517Z,101938.16
2023-09-14T22:19:15.382Z,101929.00
2023-09-14T22:21:48.558Z,101923.00
2023-09-14T22:24:23.868Z,101930.25
2023-09-14T22:26:57.219Z,101933.88
2023-09-14T22:29:31.267Z,101934.34
2023-09-14T22:32:04.824Z,101930.34
2023-09-14T22:34:39.077Z,101931.19
2023-09-14T22:37:11.930Z,101925.59
2023-09-14T22:39:44.986Z,101928.06
2023-09-14T22:42:19.800Z,101927.28
2023-09-14T22:44:55.732Z,101928.13
2023-09-14T22:47:29.617Z,101932.16
2023-09-14T22:50:04.277Z,101924.97
2023-09-14T22:52:37.322Z,101926.53
2023-09-14T22:55:13.852Z,101937.72
2023-09-14T22:57:46.842Z,101926.22
2023-09-14T23:00:20.196Z,101921.88
2023-09-14T23:02:53.550Z,101911.63
2023-09-14T23:05:27.960Z,101913.63
2023-09-14T23:08:02.238Z,101911.63
2023-09-14T23:10:35.999Z,101916.84
2023-09-14T23:13:09.947Z,101910.06
2023-09-14T23:15:43.422Z,101912.44
2023-09-14T23:18:16.931Z,101899.63
2023-09-14T23:20:53.295Z,101905.69
2023-09-14T23:23:26.688Z,101910.16
2023-09-14T23:25:59.645Z,101906.16
2023-09-14T23:28:32.288Z,101898.63
2023-09-14T23:31:05.897Z,101897.03
2023-09-14T23:33:39.227Z,101893.53
2023-09-14T23:36:17.589Z,101894.22
2023-09-14T23:38:50.507Z,101895.09
2023-09-14T23:41:23.320Z,101888.72
2023-09-14T23:43:56.826Z,101888.72
2023-09-14T23:46:29.943Z,101889.06
2023-09-14T23:49:02.936Z,101884.41
2023-09-14T23:51:39.017Z,101888.06
2023-09-14T23:54:13.278Z,101891.97
2023-09-14T23:56:47.600Z,101888.84
2023-09-14T23:59:20.432Z,101881.31
